| time (UTC) | temp C | wind direction | speed KPH | gust KPH | rain 1hr cm | rain 24hr cm | rain mn cm | humidity % | barometer mb |
| 20260510030014 | 11 | 226 | 0.0 | 0.0 | 0.00 | 1.40 | 1.37 | 97 | 1007.1 |
| 20260510024517 | 11 | 223 | 0.0 | 0.0 | 0.00 | 1.40 | 1.37 | 96 | 1006.8 |
| 20260510023013 | 11 | 195 | 0.0 | 0.0 | 0.00 | 1.40 | 1.37 | 97 | 1006.9 |
| 20260510021513 | 11 | 195 | 0.0 | 0.0 | 0.00 | 1.40 | 1.37 | 96 | 1006.9 |
| 20260510020012 | 11 | 194 | 0.0 | 0.0 | 0.00 | 1.50 | 1.37 | 96 | 1007.0 |
| 20260510014513 | 11 | 195 | 0.0 | 0.0 | 0.00 | 1.50 | 1.37 | 96 | 1006.9 |
| 20260510013012 | 11 | 202 | 0.0 | 0.0 | 0.00 | 1.50 | 1.37 | 96 | 1006.7 |
| 20260510011511 | 12 | 169 | 0.0 | 0.0 | 0.00 | 1.50 | 1.37 | 95 | 1006.4 |
| 20260510010010 | 12 | 129 | 0.0 | 0.0 | 0.00 | 1.70 | 1.37 | 95 | 1006.4 |
| 20260510004509 | 12 | 162 | 0.0 | 0.0 | 0.00 | 1.70 | 1.37 | 95 | 1006.4 |
| 20260510003010 | 12 | 117 | 0.0 | 0.0 | 0.08 | 1.70 | 1.37 | 95 | 1006.2 |
| 20260510001519 | 12 | 108 | 0.0 | 0.0 | 0.58 | 1.70 | 1.37 | 94 | 1006.1 |
| 20260510000007 | 12 | 148 | 0.0 | 0.0 | 0.66 | 1.83 | 1.37 | 93 | 1006.4 |
| 20260509234511 | 12 | 278 | 0.0 | 0.0 | 0.66 | 1.83 | 1.37 | 92 | 1006.1 |
| 20260509233006 | 12 | 353 | 0.0 | 0.0 | 0.58 | 1.75 | 1.30 | 91 | 1006.6 |
| 20260509231506 | 14 | 314 | 0.0 | 0.0 | 0.08 | 1.24 | 0.79 | 81 | 1006.4 |
| 20260509230005 | 19 | 273 | 0.0 | 0.0 | 0.00 | 1.27 | 0.71 | 60 | 1004.1 |
| 20260509224503 | 20 | 164 | 0.0 | 0.0 | 0.00 | 1.27 | 0.71 | 59 | 1003.7 |
| 20260509223003 | 20 | 267 | 0.0 | 0.0 | 0.00 | 1.27 | 0.71 | 58 | 1003.7 |
| 20260509221503 | 20 | 250 | 0.0 | 0.0 | 0.00 | 1.27 | 0.71 | 58 | 1003.3 |
| 20260509220002 | 20 | 221 | 0.0 | 0.0 | 0.00 | 1.27 | 0.71 | 58 | 1003.4 |
| 20260509214502 | 21 | 274 | 0.0 | 0.0 | 0.00 | 1.27 | 0.71 | 55 | 1003.2 |
| 20260509213106 | 21 | 173 | 0.0 | 0.0 | 0.00 | 1.27 | 0.71 | 57 | 1003.1 |
| 20260509211604 | 21 | 189 | 0.0 | 0.0 | 0.00 | 1.27 | 0.71 | 58 | 1003.5 |
| 20260509210100 | 21 | 219 | 0.0 | 0.0 | 0.00 | 1.27 | 0.71 | 58 | 1003.8 |
| 20260509204559 | 20 | 124 | 0.0 | 0.0 | 0.00 | 1.27 | 0.71 | 59 | 1003.9 |
| 20260509203049 | 20 | 136 | 0.0 | 0.0 | 0.00 | 1.27 | 0.71 | 58 | 1004.2 |
| 20260509201547 | 20 | 217 | 0.0 | 0.0 | 0.00 | 1.27 | 0.71 | 59 | 1004.2 |
| 20260509200044 | 20 | 287 | 0.0 | 0.0 | 0.00 | 1.27 | 0.71 | 60 | 1004.5 |
| 20260509194543 | 20 | 199 | 0.0 | 0.0 | 0.00 | 1.27 | 0.71 | 61 | 1004.9 |
| 20260509193043 | 19 | 235 | 0.0 | 0.0 | 0.00 | 1.27 | 0.71 | 63 | 1005.1 |
| 20260509191537 | 19 | 278 | 0.0 | 0.0 | 0.00 | 1.27 | 0.71 | 63 | 1005.2 |
| 20260509190038 | 19 | 248 | 0.0 | 0.0 | 0.00 | 1.27 | 0.71 | 66 | 1005.4 |
| 20260509184537 | 19 | 208 | 0.0 | 0.0 | 0.00 | 1.27 | 0.71 | 63 | 1005.6 |
| 20260509183032 | 19 | 241 | 0.0 | 0.0 | 0.00 | 1.27 | 0.71 | 63 | 1005.5 |
| 20260509181529 | 19 | 193 | 0.0 | 0.0 | 0.00 | 1.27 | 0.71 | 65 | 1005.6 |
| 20260509180027 | 18 | 267 | 0.0 | 0.0 | 0.00 | 1.27 | 0.71 | 66 | 1005.6 |
| 20260509174526 | 18 | 278 | 0.0 | 0.0 | 0.00 | 1.27 | 0.71 | 68 | 1005.7 |
| 20260509173023 | 18 | 276 | 0.0 | 0.0 | 0.00 | 1.27 | 0.71 | 68 | 1005.8 |
| 20260509171519 | 17 | 276 | 0.0 | 0.0 | 0.00 | 1.27 | 0.71 | 74 | 1005.7 |
| 20260509170018 | 17 | 238 | 0.0 | 0.0 | 0.00 | 1.27 | 0.71 | 73 | 1005.9 |
| 20260509164516 | 17 | 278 | 0.0 | 0.0 | 0.00 | 1.27 | 0.71 | 74 | 1006.2 |
| 20260509163019 | 17 | 267 | 0.0 | 0.0 | 0.00 | 1.27 | 0.71 | 75 | 1006.3 |
| 20260509161511 | 16 | 231 | 0.0 | 0.0 | 0.00 | 1.27 | 0.71 | 78 | 1006.7 |
| 20260509160008 | 16 | 275 | 0.0 | 0.0 | 0.00 | 1.27 | 0.71 | 80 | 1006.6 |
| 20260509154504 | 15 | 181 | 0.0 | 0.0 | 0.00 | 1.27 | 0.71 | 83 | 1006.6 |
| 20260509153003 | 15 | 198 | 0.0 | 0.0 | 0.00 | 1.27 | 0.71 | 85 | 1006.6 |
| 20260509151558 | 14 | 20 | 0.0 | 0.0 | 0.00 | 1.27 | 0.71 | 89 | 1006.7 |
| 20260509150055 | 13 | 212 | 0.0 | 0.0 | 0.00 | 1.27 | 0.71 | 91 | 1006.9 |
| 20260509144609 | 13 | 206 | 0.0 | 0.0 | 0.00 | 1.27 | 0.71 | 92 | 1006.9 |
| 20260509143052 | 12 | 219 | 0.0 | 0.0 | 0.00 | 1.27 | 0.71 | 94 | 1006.9 |
| 20260509141547 | 12 | 85 | 0.0 | 0.0 | 0.00 | 1.27 | 0.71 | 94 | 1006.9 |
| 20260509140059 | 12 | 128 | 0.0 | 0.0 | 0.00 | 1.27 | 0.71 | 95 | 1006.9 |
| 20260509134546 | 11 | 278 | 0.0 | 0.0 | 0.00 | 1.27 | 0.71 | 96 | 1006.9 |
| 20260509133041 | 11 | 209 | 0.0 | 0.0 | 0.00 | 1.27 | 0.71 | 96 | 1006.9 |
| 20260509131552 | 11 | 203 | 0.0 | 0.0 | 0.00 | 1.27 | 0.71 | 96 | 1007.1 |
| 20260509130037 | 11 | 207 | 0.0 | 0.0 | 0.00 | 1.27 | 0.71 | 96 | 1007.1 |
| 20260509124539 | 11 | 228 | 0.0 | 0.0 | 0.00 | 1.27 | 0.71 | 97 | 1007.2 |
| 20260509123035 | 11 | 169 | 0.0 | 0.0 | 0.00 | 1.27 | 0.71 | 97 | 1007.4 |
| 20260509121547 | 11 | 141 | 0.0 | 0.0 | 0.00 | 1.27 | 0.71 | 97 | 1007.3 |
| 20260509120035 | 10 | 166 | 0.0 | 0.0 | 0.00 | 1.27 | 0.71 | 97 | 1007.5 |
| 20260509114532 | 10 | 165 | 0.0 | 0.0 | 0.00 | 1.27 | 0.71 | 97 | 1007.5 |
| 20260509113027 | -17 | 0.0 | 0.0 | 0.00 | 1.27 | 0.71 | 1007.5 | ||
| 20260509111524 | -17 | 0.0 | 0.0 | 0.00 | 1.27 | 0.71 | 1007.3 | ||
| 20260509110018 | -17 | 0.0 | 0.0 | 0.00 | 1.27 | 0.71 | 1007.3 | ||
| 20260509104513 | -17 | 0.0 | 0.0 | 0.00 | 1.27 | 0.71 | 1007.2 | ||
| 20260509103008 | -17 | 0.0 | 0.0 | 0.00 | 1.27 | 0.71 | 1007.3 | ||
| 20260509101503 | -17 | 0.0 | 0.0 | 0.00 | 1.27 | 0.71 | 1007.5 | ||
| 20260509100103 | -17 | 0.0 | 0.0 | 0.00 | 1.27 | 0.71 | 1007.5 | ||
| 20260509094557 | -17 | 0.0 | 0.0 | 0.03 | 1.27 | 0.71 | 1007.6 | ||
| 20260509093052 | -17 | 127 | 0.0 | 0.0 | 0.03 | 1.27 | 0.71 | 1007.7 | |
| 20260509091549 | 10 | 154 | 0.0 | 0.0 | 0.03 | 1.27 | 0.71 | 97 | 1007.9 |
| 20260509084548 | 10 | 209 | 0.0 | 0.0 | 0.03 | 1.24 | 0.69 | 97 | 1008.0 |
| 20260509083056 | 10 | 156 | 0.0 | 0.0 | 0.08 | 1.24 | 0.69 | 97 | 1008.0 |
| 20260509081545 | 10 | 224 | 0.0 | 0.0 | 0.10 | 1.24 | 0.69 | 97 | 1008.1 |
| 20260509080048 | 10 | 171 | 0.0 | 0.0 | 0.13 | 1.24 | 0.69 | 97 | 1008.2 |
| 20260509074544 | 10 | 166 | 0.0 | 0.0 | 0.23 | 1.22 | 0.66 | 97 | 1008.3 |
| 20260509073046 | 10 | 194 | 0.0 | 0.0 | 0.28 | 1.17 | 0.61 | 97 | 1008.4 |
| 20260509071540 | 10 | 215 | 0.0 | 0.0 | 0.30 | 1.14 | 0.58 | 97 | 1008.4 |
| 20260509070040 | 10 | 199 | 0.0 | 0.0 | 0.25 | 1.09 | 0.53 | 97 | 1008.4 |
| 20260509064544 | 10 | 212 | 0.0 | 0.0 | 0.15 | 0.97 | 0.41 | 97 | 1008.5 |
| 20260509063036 | 10 | 178 | 0.0 | 0.0 | 0.08 | 0.89 | 0.33 | 97 | 1008.5 |
| 20260509061540 | 10 | 260 | 0.0 | 0.0 | 0.08 | 0.84 | 0.28 | 97 | 1008.7 |
| 20260509060032 | 10 | 171 | 0.0 | 0.0 | 0.15 | 0.84 | 0.28 | 97 | 1008.8 |
| 20260509054531 | 10 | 255 | 0.0 | 0.0 | 0.15 | 0.81 | 0.25 | 97 | 1009.0 |
| 20260509053044 | 10 | 130 | 0.0 | 0.0 | 0.18 | 0.81 | 0.25 | 96 | 1009.2 |
| 20260509051527 | 10 | 161 | 0.0 | 0.0 | 0.15 | 0.76 | 0.20 | 96 | 1009.4 |
| 20260509050029 | 10 | 276 | 0.0 | 0.0 | 0.13 | 0.69 | 0.13 | 96 | 1009.6 |
| 20260509044525 | 10 | 136 | 0.0 | 0.0 | 0.10 | 0.66 | 0.10 | 96 | 1009.6 |
| 20260509043023 | 10 | 139 | 0.0 | 0.0 | 0.10 | 0.64 | 0.08 | 96 | 1009.8 |
| 20260509041534 | 10 | 216 | 0.0 | 0.0 | 0.08 | 0.61 | 0.05 | 96 | 1009.9 |
| 20260509040019 | 10 | 222 | 0.0 | 0.0 | 0.03 | 0.56 | 0.00 | 96 | 1010.2 |
| 20260509034519 | 10 | 159 | 0.0 | 0.0 | 0.03 | 0.56 | 0.56 | 96 | 1010.4 |
| 20260509033019 | 10 | 224 | 0.0 | 0.0 | 0.00 | 0.53 | 0.53 | 96 | 1010.3 |
| 20260509031517 | 10 | 197 | 0.0 | 0.0 | 0.00 | 0.53 | 0.53 | 96 | 1010.2 |